createdAt,value
2022-10-05T00:01:49.745Z,7.00
2022-10-05T00:04:42.652Z,5.97
2022-10-05T00:09:49.663Z,5.95
2022-10-05T00:12:20.890Z,6.10
2022-10-05T00:14:51.730Z,6.45
2022-10-05T00:17:26.179Z,6.32
2022-10-05T00:19:54.653Z,6.50
2022-10-05T00:22:34.152Z,6.38
2022-10-05T00:25:05.433Z,6.80
2022-10-05T00:27:39.494Z,6.60
2022-10-05T00:30:16.861Z,7.75
2022-10-05T00:32:44.929Z,7.40
2022-10-05T00:35:14.448Z,7.43
2022-10-05T00:37:46.551Z,7.38
2022-10-05T00:40:49.440Z,8.00
2022-10-05T00:43:38.910Z,7.43
2022-10-05T00:46:12.761Z,7.13
2022-10-05T00:48:41.803Z,7.88
2022-10-05T00:51:26.264Z,8.20
2022-10-05T00:54:08.315Z,8.70
2022-10-05T00:57:13.007Z,7.88
2022-10-05T01:00:07.272Z,8.63
2022-10-05T01:02:54.372Z,7.47
2022-10-05T01:05:58.563Z,8.32
2022-10-05T01:08:58.219Z,8.13
2022-10-05T01:11:52.522Z,8.38
2022-10-05T01:14:32.721Z,8.20
2022-10-05T01:17:22.163Z,8.32
2022-10-05T01:20:25.518Z,8.48
2022-10-05T01:23:07.106Z,7.75
2022-10-05T01:26:13.313Z,8.23
2022-10-05T01:29:15.466Z,8.00
2022-10-05T01:32:01.109Z,8.30
2022-10-05T01:34:46.603Z,8.73
2022-10-05T01:37:41.687Z,8.02
2022-10-05T01:40:24.941Z,7.95
2022-10-05T01:43:13.753Z,8.30
2022-10-05T01:46:03.341Z,8.18
2022-10-05T01:48:33.136Z,8.82
2022-10-05T01:51:15.824Z,8.88
2022-10-05T01:54:21.661Z,8.60
2022-10-05T01:56:52.741Z,8.82
2022-10-05T01:59:42.135Z,9.63
2022-10-05T02:02:19.276Z,8.75
2022-10-05T02:05:06.715Z,10.00
2022-10-05T02:07:43.977Z,9.63
2022-10-05T02:10:29.136Z,12.25
2022-10-05T02:13:18.900Z,10.93
2022-10-05T02:15:52.873Z,10.93
2022-10-05T02:18:30.202Z,10.38
2022-10-05T02:21:03.203Z,11.68
2022-10-05T02:23:34.646Z,10.85
2022-10-05T02:26:02.484Z,11.07
2022-10-05T02:28:55.570Z,10.27
2022-10-05T02:31:29.517Z,10.87
2022-10-05T02:34:36.879Z,10.80
2022-10-05T02:37:55.158Z,10.88
2022-10-05T02:40:35.056Z,9.90
2022-10-05T02:43:14.178Z,10.07
2022-10-05T02:46:17.385Z,8.77
2022-10-05T02:49:23.290Z,8.98
2022-10-05T02:52:12.000Z,10.10
2022-10-05T02:54:59.080Z,8.95
2022-10-05T02:57:42.175Z,9.00
2022-10-05T03:00:26.195Z,8.20
2022-10-05T03:03:12.452Z,10.13
2022-10-05T03:05:58.835Z,7.88
2022-10-05T03:08:56.857Z,7.72
2022-10-05T03:11:46.891Z,7.40
2022-10-05T03:14:26.864Z,6.90
2022-10-05T03:17:13.308Z,6.30
2022-10-05T03:20:07.145Z,7.38
2022-10-05T03:22:55.238Z,6.88
2022-10-05T03:25:42.569Z,7.22
2022-10-05T03:28:31.477Z,7.05
2022-10-05T03:31:24.713Z,7.10
2022-10-05T03:34:11.244Z,5.72
2022-10-05T03:37:01.727Z,6.28
2022-10-05T03:39:41.700Z,5.93
2022-10-05T03:42:30.982Z,4.75
2022-10-05T03:45:24.974Z,5.90
2022-10-05T03:48:30.786Z,4.60
2022-10-05T03:51:15.574Z,5.30
2022-10-05T03:53:53.196Z,4.43
2022-10-05T03:56:41.116Z,4.60
2022-10-05T03:59:14.867Z,4.07
2022-10-05T04:01:57.134Z,3.67
2022-10-05T04:04:51.108Z,4.63
2022-10-05T04:07:47.662Z,4.70
2022-10-05T04:10:23.792Z,4.32
2022-10-05T04:13:26.260Z,4.60
2022-10-05T04:16:02.614Z,4.82
2022-10-05T04:19:01.360Z,4.65
2022-10-05T04:21:36.696Z,4.40
2022-10-05T04:24:17.298Z,4.28
2022-10-05T04:26:58.514Z,4.32
2022-10-05T04:29:53.077Z,4.35
2022-10-05T04:32:55.033Z,4.32
2022-10-05T04:35:43.154Z,4.20
2022-10-05T04:38:45.144Z,4.53
2022-10-05T04:41:32.381Z,4.50
2022-10-05T04:44:03.160Z,4.63
2022-10-05T04:46:39.129Z,5.10
2022-10-05T04:49:56.219Z,4.47
2022-10-05T04:52:53.242Z,4.20
2022-10-05T04:55:30.439Z,4.75
2022-10-05T04:58:15.628Z,4.78
2022-10-05T05:01:08.333Z,4.32
2022-10-05T05:04:12.406Z,4.55
2022-10-05T05:07:32.194Z,5.15
2022-10-05T05:10:40.583Z,4.65
2022-10-05T05:13:24.923Z,4.80
2022-10-05T05:16:01.141Z,4.53
2022-10-05T05:18:38.605Z,4.68
2022-10-05T05:21:44.905Z,4.30
2022-10-05T05:24:23.906Z,4.20
2022-10-05T05:27:22.764Z,3.33
2022-10-05T05:30:21.935Z,4.32
2022-10-05T05:33:08.677Z,3.67
2022-10-05T05:35:55.037Z,3.80
2022-10-05T05:38:49.306Z,3.90
2022-10-05T05:41:40.484Z,3.60
2022-10-05T05:44:30.144Z,3.70
2022-10-05T05:47:05.730Z,3.70
2022-10-05T05:50:13.521Z,3.20
2022-10-05T05:52:45.982Z,3.47
2022-10-05T05:55:38.584Z,3.60
2022-10-05T05:58:27.676Z,3.47
2022-10-05T06:01:05.236Z,3.47
2022-10-05T06:03:36.832Z,3.40
2022-10-05T06:06:15.056Z,3.47
2022-10-05T06:08:53.674Z,3.80
2022-10-05T06:11:54.476Z,3.20
2022-10-05T06:14:35.652Z,3.13
2022-10-05T06:17:23.701Z,3.30
2022-10-05T06:20:02.477Z,3.50
2022-10-05T06:22:38.981Z,2.97
2022-10-05T06:25:11.819Z,3.10
2022-10-05T06:28:02.147Z,2.85
2022-10-05T06:30:43.766Z,3.20
2022-10-05T06:33:41.080Z,3.45
2022-10-05T06:36:23.068Z,3.28
2022-10-05T06:39:10.541Z,3.55
2022-10-05T06:41:41.563Z,3.20
2022-10-05T06:44:26.600Z,3.53
2022-10-05T06:47:30.096Z,3.05
2022-10-05T06:50:38.782Z,3.13
2022-10-05T06:54:01.013Z,3.58
2022-10-05T06:57:09.108Z,2.88
2022-10-05T07:00:22.556Z,3.15
2022-10-05T07:03:46.531Z,3.10
2022-10-05T07:06:25.715Z,3.33
2022-10-05T07:09:31.892Z,3.33
2022-10-05T07:12:30.481Z,3.28
2022-10-05T07:15:19.759Z,3.17
2022-10-05T07:17:54.634Z,2.72
2022-10-05T07:20:37.560Z,3.30
2022-10-05T07:23:17.574Z,3.10
2022-10-05T07:25:52.429Z,3.08
2022-10-05T07:28:36.045Z,3.38
2022-10-05T07:31:12.600Z,3.15
2022-10-05T07:34:17.976Z,3.03
2022-10-05T07:37:17.053Z,3.30
2022-10-05T07:40:05.774Z,2.95
2022-10-05T07:42:52.339Z,3.08
2022-10-05T07:45:38.125Z,3.33
2022-10-05T07:48:21.261Z,3.00
2022-10-05T07:51:13.318Z,2.90
2022-10-05T07:53:49.030Z,3.00
2022-10-05T07:56:33.105Z,2.60
2022-10-05T07:59:08.174Z,2.70
2022-10-05T08:01:42.159Z,2.67
2022-10-05T08:04:23.259Z,2.35
2022-10-05T08:07:02.125Z,2.42
2022-10-05T08:10:11.118Z,2.85
2022-10-05T08:13:03.579Z,2.53
2022-10-05T08:15:54.065Z,2.53
2022-10-05T08:18:58.030Z,4.63
2022-10-05T08:21:34.658Z,2.80
2022-10-05T08:24:43.893Z,2.95
2022-10-05T08:27:40.091Z,2.80
2022-10-05T08:30:15.129Z,2.85
2022-10-05T08:33:09.838Z,2.60
2022-10-05T08:35:39.208Z,2.72
2022-10-05T08:38:20.016Z,2.70
2022-10-05T08:41:17.075Z,3.08
2022-10-05T08:44:15.036Z,2.67
2022-10-05T08:47:15.236Z,2.78
2022-10-05T08:50:10.183Z,2.13
2022-10-05T08:53:12.467Z,2.85
2022-10-05T08:55:40.229Z,2.77
2022-10-05T08:58:52.598Z,2.88
2022-10-05T09:01:41.957Z,2.08
2022-10-05T09:04:51.353Z,2.85
2022-10-05T09:07:56.150Z,3.00
2022-10-05T09:10:59.168Z,2.30
2022-10-05T09:14:03.713Z,2.85
2022-10-05T09:17:06.789Z,2.17
2022-10-05T09:19:40.523Z,2.78
2022-10-05T09:22:41.716Z,2.97
2022-10-05T09:25:29.325Z,4.05
2022-10-05T09:28:22.590Z,5.90
2022-10-05T09:31:26.341Z,2.20
2022-10-05T09:34:28.872Z,2.53
2022-10-05T09:37:44.683Z,2.60
2022-10-05T09:40:41.764Z,2.40
2022-10-05T09:43:44.178Z,2.22
2022-10-05T09:46:33.479Z,2.88
2022-10-05T09:49:04.556Z,1.95
2022-10-05T09:51:42.220Z,2.55
2022-10-05T09:54:19.484Z,2.15
2022-10-05T09:57:18.351Z,2.20
2022-10-05T10:00:08.485Z,2.50
2022-10-05T10:03:05.499Z,2.35
2022-10-05T10:06:18.552Z,1.65
2022-10-05T10:09:17.673Z,2.70
2022-10-05T10:12:07.506Z,2.20
2022-10-05T10:14:50.770Z,2.70
2022-10-05T10:17:45.619Z,2.15
2022-10-05T10:20:22.785Z,2.50
2022-10-05T10:22:52.826Z,2.47
2022-10-05T10:25:50.086Z,2.10
2022-10-05T10:28:52.610Z,2.75
2022-10-05T10:31:59.151Z,2.50
2022-10-05T10:35:04.483Z,2.00
2022-10-05T10:38:22.265Z,2.30
2022-10-05T10:41:01.097Z,2.75
2022-10-05T10:44:04.326Z,2.53
2022-10-05T10:46:53.668Z,1.42
2022-10-05T10:50:05.158Z,2.58
2022-10-05T10:53:00.563Z,2.08
2022-10-05T10:55:35.600Z,1.92
2022-10-05T10:58:27.620Z,2.63
2022-10-05T11:01:25.387Z,3.07
2022-10-05T11:04:16.551Z,2.50
2022-10-05T11:06:56.868Z,2.20
2022-10-05T11:13:52.662Z,2.30
2022-10-05T11:16:32.570Z,2.50
2022-10-05T11:19:39.997Z,2.83
2022-10-05T11:22:17.217Z,1.80
2022-10-05T11:25:03.514Z,2.40
2022-10-05T11:27:50.737Z,2.20
2022-10-05T11:30:18.183Z,2.03
2022-10-05T11:33:12.266Z,2.33
2022-10-05T11:36:35.442Z,1.60
2022-10-05T11:39:25.595Z,2.15
2022-10-05T11:42:13.673Z,2.58
2022-10-05T11:45:11.261Z,2.00
2022-10-05T11:48:07.950Z,2.20
2022-10-05T11:50:58.813Z,2.50
2022-10-05T11:53:47.229Z,2.55
2022-10-05T11:56:20.305Z,2.72
2022-10-05T11:59:16.917Z,3.10
2022-10-05T12:02:00.958Z,3.38
2022-10-05T12:05:16.010Z,3.08
2022-10-05T12:11:25.995Z,2.40
2022-10-05T12:14:15.366Z,2.60
2022-10-05T12:16:53.647Z,1.90
2022-10-05T12:19:32.371Z,2.13
2022-10-05T12:22:27.228Z,2.20
2022-10-05T12:25:40.060Z,2.20
2022-10-05T12:28:52.492Z,1.95
2022-10-05T12:31:30.173Z,2.20
2022-10-05T12:34:28.133Z,2.33
2022-10-05T12:37:42.108Z,1.88
2022-10-05T12:41:13.901Z,2.78
2022-10-05T12:44:03.281Z,2.80
2022-10-05T12:49:43.123Z,2.22
2022-10-05T12:52:39.060Z,2.60
2022-10-05T12:55:21.773Z,2.55
2022-10-05T12:58:05.545Z,2.65
2022-10-05T13:00:44.300Z,2.63
2022-10-05T13:03:40.064Z,2.47
2022-10-05T13:06:28.966Z,2.65
2022-10-05T13:09:26.827Z,2.10
2022-10-05T13:12:07.350Z,2.58
2022-10-05T13:14:52.629Z,2.05
2022-10-05T13:17:38.560Z,2.28
2022-10-05T13:20:25.782Z,2.00
2022-10-05T13:23:35.996Z,2.00
2022-10-05T13:26:20.721Z,1.88
2022-10-05T13:29:22.259Z,1.58
2022-10-05T13:32:25.570Z,1.90
2022-10-05T13:35:19.443Z,1.40
2022-10-05T13:38:02.008Z,1.83
2022-10-05T13:40:39.535Z,1.85
2022-10-05T13:43:25.955Z,1.95
2022-10-05T13:46:14.359Z,1.63
2022-10-05T13:49:24.319Z,1.80
2022-10-05T13:52:09.395Z,2.10
2022-10-05T13:54:57.307Z,2.00
2022-10-05T13:58:05.776Z,1.65
2022-10-05T14:00:50.189Z,2.00
2022-10-05T14:03:37.835Z,1.95
2022-10-05T14:07:07.320Z,2.10
2022-10-05T14:09:52.350Z,1.30
2022-10-05T14:12:23.692Z,1.65
2022-10-05T14:17:34.143Z,1.80
2022-10-05T14:20:20.289Z,1.60
2022-10-05T14:22:57.325Z,2.20
2022-10-05T14:25:33.675Z,1.52
2022-10-05T14:28:24.601Z,1.95
2022-10-05T14:31:25.517Z,2.08
2022-10-05T14:34:30.804Z,1.65
2022-10-05T14:37:18.102Z,2.03
2022-10-05T14:39:49.004Z,2.10
2022-10-05T14:42:21.674Z,1.10
2022-10-05T14:45:01.666Z,1.88
2022-10-05T14:47:32.352Z,1.67
2022-10-05T14:53:14.635Z,1.70
2022-10-05T14:56:14.534Z,1.80
2022-10-05T14:58:47.512Z,1.90
2022-10-05T15:01:29.711Z,1.80
2022-10-05T15:04:20.864Z,2.00
2022-10-05T15:07:18.221Z,1.90
2022-10-05T15:10:03.262Z,1.90
2022-10-05T15:12:53.284Z,2.10
2022-10-05T15:16:04.449Z,2.25
2022-10-05T15:19:04.328Z,2.20
2022-10-05T15:21:35.843Z,2.65
2022-10-05T15:27:37.107Z,3.20
2022-10-05T15:30:22.661Z,3.38
2022-10-05T15:36:45.809Z,2.70
2022-10-05T15:51:13.803Z,2.65
2022-10-05T15:54:35.650Z,2.13
2022-10-05T16:00:33.716Z,2.45
2022-10-05T16:03:17.159Z,2.50
2022-10-05T16:06:46.916Z,2.05
2022-10-05T16:09:36.178Z,2.00
2022-10-05T16:22:31.292Z,2.55
2022-10-05T16:25:24.506Z,2.05
2022-10-05T16:29:03.358Z,2.60
2022-10-05T16:31:59.012Z,2.70
2022-10-05T16:35:01.325Z,2.53
2022-10-05T16:37:51.647Z,2.90
2022-10-05T16:40:25.556Z,3.00
2022-10-05T16:43:13.383Z,2.75
2022-10-05T16:45:52.169Z,2.88
2022-10-05T16:48:27.282Z,2.60
2022-10-05T16:51:37.582Z,2.90
2022-10-05T16:54:37.480Z,3.05
2022-10-05T17:00:48.839Z,2.65
2022-10-05T17:03:40.429Z,6.60
2022-10-05T17:06:27.970Z,3.92
2022-10-05T17:09:20.989Z,2.78
2022-10-05T17:11:52.182Z,2.63
2022-10-05T17:14:30.698Z,2.78
2022-10-05T17:17:17.390Z,3.97
2022-10-05T17:19:54.113Z,2.80
2022-10-05T17:22:39.973Z,2.78
2022-10-05T17:25:18.489Z,2.50
2022-10-05T17:27:58.007Z,3.20
2022-10-05T17:30:58.885Z,2.67
2022-10-05T17:33:30.491Z,2.70
2022-10-05T17:39:22.244Z,3.33
2022-10-05T17:41:49.706Z,2.30
2022-10-05T17:44:25.531Z,2.67
2022-10-05T17:47:12.171Z,3.28
2022-10-05T17:50:22.954Z,3.33
2022-10-05T17:53:44.709Z,2.25
2022-10-05T17:56:12.678Z,2.50
2022-10-05T17:58:54.741Z,2.97
2022-10-05T18:04:15.620Z,2.60
2022-10-05T18:07:01.579Z,2.50
2022-10-05T18:09:39.874Z,3.30
2022-10-05T18:12:20.242Z,3.08
2022-10-05T18:15:09.971Z,3.33
2022-10-05T18:17:42.005Z,3.20
2022-10-05T18:20:26.966Z,2.95
2022-10-05T18:23:09.816Z,3.50
2022-10-05T18:26:06.593Z,3.35
2022-10-05T18:29:16.460Z,2.83
2022-10-05T18:31:59.084Z,2.97
2022-10-05T18:35:02.158Z,3.42
2022-10-05T18:37:47.886Z,3.75
2022-10-05T18:40:38.433Z,3.30
2022-10-05T18:43:29.608Z,4.18
2022-10-05T18:46:51.839Z,4.00
2022-10-05T18:49:46.790Z,3.83
2022-10-05T18:52:45.929Z,3.83
2022-10-05T18:55:54.297Z,4.05
2022-10-05T18:58:38.643Z,4.13
2022-10-05T19:01:22.333Z,4.15
2022-10-05T19:07:12.695Z,4.18
2022-10-05T19:09:58.267Z,3.83
2022-10-05T19:12:55.987Z,4.32
2022-10-05T19:15:28.824Z,4.68
2022-10-05T19:18:42.180Z,4.68
2022-10-05T19:21:55.706Z,4.75
2022-10-05T19:24:51.004Z,5.47
2022-10-05T19:27:56.601Z,3.30
2022-10-05T19:30:35.320Z,2.42
2022-10-05T19:33:35.097Z,2.30
2022-10-05T19:37:23.734Z,2.22
2022-10-05T19:40:15.164Z,2.25
2022-10-05T19:43:26.903Z,1.27
2022-10-05T19:52:49.902Z,1.92
2022-10-05T19:55:34.979Z,1.90
2022-10-05T20:04:06.573Z,2.30
2022-10-05T20:09:21.963Z,1.50
2022-10-05T20:11:52.188Z,1.60
2022-10-05T20:14:32.167Z,2.45
2022-10-05T20:17:47.309Z,1.83
2022-10-05T20:20:39.303Z,1.75
2022-10-05T20:23:41.426Z,2.10
2022-10-05T20:27:13.900Z,1.83
2022-10-05T20:33:25.766Z,1.90
2022-10-05T20:35:54.605Z,1.70
2022-10-05T20:38:30.343Z,1.60
2022-10-05T20:41:20.542Z,1.88
2022-10-05T20:46:35.296Z,1.60
2022-10-05T20:52:05.345Z,1.88
2022-10-05T20:54:36.637Z,2.35
2022-10-05T20:57:07.363Z,4.50
2022-10-05T20:59:41.980Z,2.10
2022-10-05T21:02:25.509Z,2.08
2022-10-05T21:04:57.240Z,1.50
2022-10-05T21:07:25.768Z,2.07
2022-10-05T21:09:58.590Z,1.85
2022-10-05T21:12:28.373Z,2.17
2022-10-05T21:14:56.914Z,2.00
2022-10-05T21:17:23.862Z,1.85
2022-10-05T21:19:50.850Z,2.17
2022-10-05T21:22:17.636Z,2.20
2022-10-05T21:24:45.790Z,1.90
2022-10-05T21:27:12.604Z,2.20
2022-10-05T21:29:41.296Z,2.40
2022-10-05T21:32:11.731Z,2.25
2022-10-05T21:34:41.685Z,2.13
2022-10-05T21:37:08.725Z,1.92
2022-10-05T21:39:36.823Z,2.50
2022-10-05T21:42:04.554Z,2.22
2022-10-05T21:44:32.593Z,2.00
2022-10-05T21:46:59.905Z,1.65
2022-10-05T21:49:28.376Z,2.05
2022-10-05T21:51:55.327Z,1.80
2022-10-05T21:54:23.919Z,2.35
2022-10-05T21:56:54.857Z,2.30
2022-10-05T21:59:31.888Z,1.80
2022-10-05T22:02:03.257Z,2.17
2022-10-05T22:04:34.179Z,1.60
2022-10-05T22:07:05.807Z,2.53
2022-10-05T22:09:33.733Z,2.15
2022-10-05T22:12:01.609Z,2.28
2022-10-05T22:14:29.979Z,2.70
2022-10-05T22:16:59.140Z,2.00
2022-10-05T22:19:26.157Z,2.25
2022-10-05T22:21:54.136Z,2.13
2022-10-05T22:24:21.311Z,1.92
2022-10-05T22:26:51.622Z,2.53
2022-10-05T22:29:19.442Z,2.33
2022-10-05T22:31:49.284Z,1.90
2022-10-05T22:34:17.911Z,2.00
2022-10-05T22:36:46.083Z,1.85
2022-10-05T22:39:16.529Z,2.00
2022-10-05T22:41:43.785Z,2.25
2022-10-05T22:44:11.082Z,2.38
2022-10-05T22:46:39.767Z,2.03
2022-10-05T22:49:06.842Z,2.22
2022-10-05T22:51:33.899Z,1.40
2022-10-05T22:54:01.160Z,2.00
2022-10-05T22:56:28.834Z,2.13
2022-10-05T22:58:55.773Z,1.92
2022-10-05T23:01:23.951Z,2.28
2022-10-05T23:03:51.005Z,1.98
2022-10-05T23:06:20.200Z,2.03
2022-10-05T23:08:47.882Z,1.98
2022-10-05T23:11:25.914Z,2.33
2022-10-05T23:13:56.995Z,2.25
2022-10-05T23:16:26.670Z,1.70
2022-10-05T23:18:56.488Z,2.28
2022-10-05T23:21:25.513Z,1.88
2022-10-05T23:23:54.375Z,1.98
2022-10-05T23:26:23.988Z,2.33
2022-10-05T23:28:51.023Z,1.23
2022-10-05T23:31:20.857Z,2.05
2022-10-05T23:33:50.151Z,2.00
2022-10-05T23:36:23.552Z,2.28
2022-10-05T23:38:52.260Z,1.98
2022-10-05T23:41:20.060Z,2.22
2022-10-05T23:43:47.196Z,1.70
2022-10-05T23:46:14.476Z,2.17
2022-10-05T23:48:41.472Z,2.15
2022-10-05T23:51:11.068Z,2.17
2022-10-05T23:53:38.356Z,2.30
2022-10-05T23:56:06.485Z,2.00
2022-10-05T23:58:33.857Z,2.30
